createdAt,value
2023-03-29T00:01:49.965Z,6.09
2023-03-29T00:06:52.998Z,6.10
2023-03-29T00:11:56.083Z,6.11
2023-03-29T00:17:00.723Z,6.11
2023-03-29T00:22:05.966Z,6.10
2023-03-29T00:27:09.068Z,6.12
2023-03-29T00:32:13.658Z,6.17
2023-03-29T00:37:16.688Z,6.18
2023-03-29T00:42:20.185Z,6.14
2023-03-29T00:47:29.903Z,6.22
2023-03-29T00:52:34.997Z,6.26
2023-03-29T00:57:41.759Z,6.28
2023-03-29T01:02:54.546Z,6.30
2023-03-29T01:08:02.420Z,6.35
2023-03-29T01:13:10.495Z,6.35
2023-03-29T01:18:15.556Z,6.39
2023-03-29T01:23:46.239Z,6.41
2023-03-29T01:28:58.563Z,6.47
2023-03-29T01:34:08.753Z,6.47
2023-03-29T01:39:11.970Z,6.54
2023-03-29T01:44:20.989Z,6.55
2023-03-29T01:49:29.970Z,6.61
2023-03-29T01:54:37.176Z,6.57
2023-03-29T01:59:45.121Z,6.66
2023-03-29T02:04:55.144Z,6.69
2023-03-29T02:09:59.996Z,6.73
2023-03-29T02:15:07.089Z,6.72
2023-03-29T02:20:15.130Z,6.69
2023-03-29T02:25:18.934Z,6.78
2023-03-29T02:30:25.955Z,6.81
2023-03-29T02:35:37.292Z,6.83
2023-03-29T02:40:42.799Z,6.85
2023-03-29T02:45:52.129Z,6.83
2023-03-29T02:50:59.763Z,6.88
2023-03-29T02:56:04.504Z,6.83
2023-03-29T03:01:10.596Z,6.90
2023-03-29T03:06:13.860Z,6.90
2023-03-29T03:11:17.050Z,6.85
2023-03-29T03:16:21.889Z,6.88
2023-03-29T03:21:25.955Z,6.90
2023-03-29T03:26:30.292Z,6.89
2023-03-29T03:31:36.438Z,6.90
2023-03-29T03:36:50.955Z,6.95
2023-03-29T03:41:54.012Z,6.96
2023-03-29T03:46:58.819Z,6.90
2023-03-29T03:52:01.846Z,6.97
2023-03-29T03:57:04.954Z,6.98
2023-03-29T04:02:22.322Z,6.98
2023-03-29T04:07:25.836Z,6.97
2023-03-29T04:13:02.403Z,6.97
2023-03-29T04:18:09.763Z,7.02
2023-03-29T04:23:23.422Z,7.01
2023-03-29T04:28:26.758Z,7.01
2023-03-29T04:33:46.755Z,6.97
2023-03-29T04:38:54.656Z,7.05
2023-03-29T04:43:58.613Z,7.06
2023-03-29T04:49:05.126Z,6.93
2023-03-29T04:54:16.891Z,7.05
2023-03-29T04:59:40.079Z,7.10
2023-03-29T05:04:56.862Z,7.12
2023-03-29T05:10:00.965Z,7.08
2023-03-29T05:15:04.894Z,7.18
2023-03-29T05:20:11.384Z,7.13
2023-03-29T05:25:17.057Z,7.23
2023-03-29T05:30:20.673Z,7.24
2023-03-29T05:35:37.289Z,7.26
2023-03-29T05:40:43.996Z,7.28
2023-03-29T05:46:06.413Z,7.34
2023-03-29T05:51:12.533Z,7.38
2023-03-29T05:56:16.963Z,7.43
2023-03-29T06:01:20.677Z,7.53
2023-03-29T06:06:37.057Z,7.56
2023-03-29T06:11:40.931Z,7.67
2023-03-29T06:16:56.734Z,7.77
2023-03-29T06:22:04.855Z,7.85
2023-03-29T06:27:10.622Z,7.88
2023-03-29T06:32:17.785Z,7.89
2023-03-29T06:37:29.224Z,8.14
2023-03-29T06:42:44.702Z,8.32
2023-03-29T06:47:59.790Z,8.47
2023-03-29T06:53:05.560Z,8.54
2023-03-29T06:58:11.171Z,8.74
2023-03-29T07:03:20.429Z,9.00
2023-03-29T07:08:31.510Z,9.26
2023-03-29T07:13:38.180Z,9.41
2023-03-29T07:18:44.995Z,9.40
2023-03-29T07:23:58.282Z,9.71
2023-03-29T07:29:01.664Z,9.78
2023-03-29T07:34:06.256Z,9.77
2023-03-29T07:39:12.877Z,9.70
2023-03-29T07:44:21.728Z,9.84
2023-03-29T07:49:25.590Z,10.10
2023-03-29T07:54:33.227Z,10.19
2023-03-29T07:59:56.500Z,10.15
2023-03-29T08:05:03.595Z,10.19
2023-03-29T08:10:10.576Z,10.43
2023-03-29T08:15:35.030Z,10.67
2023-03-29T08:20:38.275Z,10.91
2023-03-29T08:25:42.738Z,11.16
2023-03-29T08:30:46.918Z,11.50
2023-03-29T08:35:51.132Z,11.75
2023-03-29T08:41:07.285Z,11.96
2023-03-29T08:46:23.235Z,12.07
2023-03-29T08:51:31.483Z,12.50
2023-03-29T08:56:39.729Z,12.77
2023-03-29T09:02:05.445Z,12.59
2023-03-29T09:07:11.014Z,12.62
2023-03-29T09:12:36.493Z,12.63
2023-03-29T09:18:00.660Z,12.46
2023-03-29T09:23:17.321Z,12.47
2023-03-29T09:28:57.326Z,12.77
2023-03-29T09:34:05.553Z,12.90
2023-03-29T09:39:24.094Z,12.63
2023-03-29T09:44:40.903Z,12.42
2023-03-29T09:49:51.761Z,12.35
2023-03-29T09:54:55.487Z,12.29
2023-03-29T10:00:23.619Z,12.85
2023-03-29T10:05:29.527Z,12.95
2023-03-29T10:10:36.830Z,12.80
2023-03-29T10:15:41.185Z,12.61
2023-03-29T10:20:44.265Z,12.52
2023-03-29T10:25:47.776Z,12.39
2023-03-29T10:30:57.564Z,12.41
2023-03-29T10:36:04.191Z,12.41
2023-03-29T10:41:11.762Z,12.51
2023-03-29T10:46:23.435Z,12.57
2023-03-29T10:51:30.186Z,12.90
2023-03-29T10:56:40.528Z,13.14
2023-03-29T11:01:52.779Z,13.60
2023-03-29T11:07:11.698Z,13.75
2023-03-29T11:12:24.173Z,13.69
2023-03-29T11:17:39.519Z,13.62
2023-03-29T11:22:51.554Z,13.94
2023-03-29T11:28:00.865Z,13.89
2023-03-29T11:33:18.129Z,14.26
2023-03-29T11:38:30.544Z,14.34
2023-03-29T11:43:37.191Z,14.23
2023-03-29T11:48:47.914Z,13.90
2023-03-29T11:54:04.949Z,13.72
2023-03-29T11:59:16.041Z,14.14
2023-03-29T12:04:25.891Z,14.55
2023-03-29T12:09:34.276Z,14.48
2023-03-29T12:14:51.739Z,14.53
2023-03-29T12:20:04.309Z,14.63
2023-03-29T12:25:18.177Z,15.26
2023-03-29T12:30:34.413Z,15.66
2023-03-29T12:35:52.368Z,16.08
2023-03-29T12:41:21.927Z,16.27
2023-03-29T12:46:45.695Z,16.69
2023-03-29T12:51:53.470Z,16.97
2023-03-29T12:57:00.338Z,16.95
2023-03-29T13:02:24.682Z,16.88
2023-03-29T13:07:44.623Z,16.82
2023-03-29T13:12:51.261Z,16.90
2023-03-29T13:18:03.567Z,17.06
2023-03-29T13:23:26.460Z,17.10
2023-03-29T13:28:39.336Z,17.26
2023-03-29T13:33:57.697Z,17.37
2023-03-29T13:39:07.740Z,17.61
2023-03-29T13:44:27.482Z,17.61
2023-03-29T13:49:35.377Z,17.57
2023-03-29T13:54:44.518Z,17.42
2023-03-29T13:59:56.223Z,17.52
2023-03-29T14:05:04.321Z,17.63
2023-03-29T14:10:17.509Z,17.63
2023-03-29T14:15:23.932Z,17.72
2023-03-29T14:20:27.556Z,17.77
2023-03-29T14:25:39.399Z,17.86
2023-03-29T14:30:46.671Z,17.90
2023-03-29T14:35:52.032Z,17.96
2023-03-29T14:41:01.361Z,18.05
2023-03-29T14:46:09.133Z,18.02
2023-03-29T14:51:12.622Z,18.12
2023-03-29T14:56:26.258Z,18.20
2023-03-29T15:01:29.735Z,18.19
2023-03-29T15:06:34.298Z,18.31
2023-03-29T15:11:40.038Z,18.36
2023-03-29T15:16:47.484Z,18.26
2023-03-29T15:21:52.228Z,18.08
2023-03-29T15:27:05.634Z,17.74
2023-03-29T15:32:10.386Z,17.48
2023-03-29T15:37:14.273Z,17.08
2023-03-29T15:42:18.813Z,16.84
2023-03-29T15:47:22.185Z,16.67
2023-03-29T15:52:25.754Z,16.35
2023-03-29T15:57:30.407Z,16.35
2023-03-29T16:02:37.013Z,16.36
2023-03-29T16:07:40.521Z,16.33
2023-03-29T16:12:45.028Z,16.28
2023-03-29T16:17:50.406Z,16.28
2023-03-29T16:22:54.323Z,16.17
2023-03-29T16:27:59.113Z,16.04
2023-03-29T16:33:06.272Z,15.92
2023-03-29T16:38:10.093Z,15.82
2023-03-29T16:43:19.189Z,15.81
2023-03-29T16:48:22.505Z,15.74
2023-03-29T16:53:26.522Z,15.69
2023-03-29T16:58:30.977Z,15.53
2023-03-29T17:03:34.017Z,15.43
2023-03-29T17:08:37.588Z,15.37
2023-03-29T17:13:42.174Z,15.27
2023-03-29T17:18:46.355Z,15.25
2023-03-29T17:23:51.501Z,15.17
2023-03-29T17:28:56.132Z,15.07
2023-03-29T17:33:59.270Z,14.98
2023-03-29T17:39:02.945Z,14.70
2023-03-29T17:44:07.525Z,14.77
2023-03-29T17:49:10.765Z,14.68
2023-03-29T17:54:13.792Z,14.59
2023-03-29T17:59:18.656Z,14.46
2023-03-29T18:04:21.821Z,14.31
2023-03-29T18:09:26.308Z,14.15
2023-03-29T18:14:32.328Z,13.99
2023-03-29T18:19:35.540Z,13.86
2023-03-29T18:24:38.751Z,13.72
2023-03-29T18:29:44.081Z,13.59
2023-03-29T18:34:47.172Z,13.50
2023-03-29T18:39:55.542Z,13.44
2023-03-29T18:45:00.412Z,13.35
2023-03-29T18:50:04.043Z,13.29
2023-03-29T18:55:08.512Z,13.24
2023-03-29T19:00:13.652Z,13.29
2023-03-29T19:05:17.126Z,13.26
2023-03-29T19:10:21.367Z,13.20
2023-03-29T19:15:26.439Z,13.24
2023-03-29T19:20:30.103Z,13.25
2023-03-29T19:25:33.632Z,13.18
2023-03-29T19:30:38.212Z,13.27
2023-03-29T19:35:41.753Z,13.23
2023-03-29T19:40:46.569Z,13.23
2023-03-29T19:45:53.452Z,13.27
2023-03-29T19:51:01.531Z,13.25
2023-03-29T19:56:06.659Z,13.25
2023-03-29T20:01:11.505Z,13.23
2023-03-29T20:06:14.795Z,13.20
2023-03-29T20:11:20.021Z,13.12
2023-03-29T20:16:26.213Z,13.03
2023-03-29T20:21:30.127Z,13.04
2023-03-29T20:26:33.155Z,13.03
2023-03-29T20:31:37.593Z,13.01
2023-03-29T20:36:41.611Z,13.04
2023-03-29T20:41:47.872Z,13.02
2023-03-29T20:47:03.426Z,12.98
2023-03-29T20:52:09.318Z,12.93
2023-03-29T20:57:14.319Z,12.99
2023-03-29T21:02:21.305Z,12.98
2023-03-29T21:07:24.764Z,13.01
2023-03-29T21:12:27.849Z,12.94
2023-03-29T21:17:35.012Z,12.89
2023-03-29T21:22:39.584Z,12.81
2023-03-29T21:27:42.999Z,12.77
2023-03-29T21:32:47.672Z,12.66
2023-03-29T21:37:53.819Z,12.71
2023-03-29T21:42:56.814Z,12.62
2023-03-29T21:48:01.603Z,12.62
2023-03-29T21:53:04.816Z,12.63
2023-03-29T21:58:07.848Z,12.58
2023-03-29T22:03:12.499Z,12.57
2023-03-29T22:08:15.629Z,12.44
2023-03-29T22:13:18.897Z,12.36
2023-03-29T22:18:23.684Z,12.26
2023-03-29T22:23:27.014Z,12.21
2023-03-29T22:28:29.992Z,12.14
2023-03-29T22:33:35.179Z,12.08
2023-03-29T22:38:38.280Z,11.91
2023-03-29T22:43:41.905Z,11.92
2023-03-29T22:48:46.354Z,11.82
2023-03-29T22:53:50.247Z,11.79
2023-03-29T22:58:53.271Z,11.72
2023-03-29T23:03:57.744Z,11.78
2023-03-29T23:09:00.894Z,11.77
2023-03-29T23:14:05.336Z,11.68
2023-03-29T23:19:09.740Z,11.93
2023-03-29T23:24:13.370Z,11.96
2023-03-29T23:29:16.458Z,11.95
2023-03-29T23:34:20.961Z,11.95
2023-03-29T23:39:25.212Z,11.93
2023-03-29T23:44:28.519Z,11.98
2023-03-29T23:49:33.342Z,11.99
2023-03-29T23:54:36.584Z,12.12
2023-03-29T23:59:40.160Z,12.16
